Big Bear Station Historical Data
Daily Summary for April 20, 2017 Units:  English    Metric   Both
« Previous Day
Next Day »
Daily Weekly Monthly Yearly Custom
  High: Low: Average:
Temperature: 67.8 °F 33.1 °F 53.5 °F
Dew Point: 30.7 °F 8.0 °F 19.1 °F
Humidity: 74 % 10 % 29 %
Wind Speed: 6.8 mph 0.0 mph 3 mph
Wind Gust: -999.0 mph - -
Wind:- - SW
Pressure: 30.23 in 30.18 in -
Precipitation: 0.00 in    
Historical Graphs
 
 
Tabular Data for April 20, 2017
Time Temperature Dew Point Pressure Wind Wind Speed Wind Gust Humidity Rainfall Rate (Hourly)
00:02 38.3 °F 30.7 °F 30.23 in Calm   -999.0 mph 74 % 0 in
05:52 34.0 °F 21.2 °F 30.19 in South 1.1 mph -999.0 mph 59 % 0 in
06:07 33.1 °F 20.7 °F 30.19 in Calm   -999.0 mph 60 % 0 in
06:23 33.8 °F 17.6 °F 30.19 in South 2.2 mph -999.0 mph 51 % 0 in
06:38 33.8 °F 15.7 °F 30.19 in SE 2.7 mph -999.0 mph 47 % 0 in
06:53 34.9 °F 15.7 °F 30.19 in South 1.7 mph -999.0 mph 45 % 0 in
07:08 36.1 °F 18.8 °F 30.19 in SSE 2.7 mph -999.0 mph 49 % 0 in
07:24 39.7 °F 19.6 °F 30.19 in SSE 2.7 mph -999.0 mph 44 % 0 in
07:39 41.2 °F 21.5 °F 30.19 in WSW 2.7 mph -999.0 mph 45 % 0 in
07:54 42.8 °F 20.1 °F 30.19 in WNW 2.2 mph -999.0 mph 40 % 0 in
08:09 48.4 °F 19.1 °F 30.19 in NW 5.8 mph -999.0 mph 31 % 0 in
08:25 50.4 °F 18.5 °F 30.19 in NW 5.3 mph -999.0 mph 28 % 0 in
08:40 51.4 °F 21.0 °F 30.20 in NW 2.7 mph -999.0 mph 30 % 0 in
08:56 52.2 °F 20.9 °F 30.20 in NW 4.2 mph -999.0 mph 29 % 0 in
09:11 53.8 °F 19.7 °F 30.21 in NE 5.8 mph -999.0 mph 26 % 0 in
09:27 53.8 °F 27.5 °F 30.21 in NNW 4.2 mph -999.0 mph 36 % 0 in
09:42 52.2 °F 26.7 °F 30.21 in North 5.3 mph -999.0 mph 37 % 0 in
09:57 52.7 °F 24.4 °F 30.21 in NNW 3.7 mph -999.0 mph 33 % 0 in
10:12 54.5 °F 23.7 °F 30.21 in NNW 5.3 mph -999.0 mph 30 % 0 in
10:28 55.4 °F 23.6 °F 30.21 in NW 5.8 mph -999.0 mph 29 % 0 in
10:43 55.9 °F 25.7 °F 30.22 in NE 3.7 mph -999.0 mph 31 % 0 in
10:59 56.7 °F 25.6 °F 30.22 in ENE 1.7 mph -999.0 mph 30 % 0 in
11:14 56.5 °F 22.9 °F 30.22 in ENE 1.7 mph -999.0 mph 27 % 0 in
11:29 59.4 °F 23.5 °F 30.21 in NNW 4.7 mph -999.0 mph 25 % 0 in
11:45 59.9 °F 25.8 °F 30.21 in NNW 3.7 mph -999.0 mph 27 % 0 in
12:00 60.4 °F 20.3 °F 30.21 in NW 4.2 mph -999.0 mph 21 % 0 in
12:15 62.4 °F 20.8 °F 30.21 in NNW 3.7 mph -999.0 mph 20 % 0 in
12:30 62.4 °F 14.1 °F 30.20 in NNW 4.7 mph -999.0 mph 15 % 0 in
12:46 64.6 °F 15.9 °F 30.20 in NNW 5.3 mph -999.0 mph 15 % 0 in
13:01 63.5 °F 16.5 °F 30.21 in NW 3.7 mph -999.0 mph 16 % 0 in
13:16 63.5 °F 15.0 °F 30.21 in NNW 4.7 mph -999.0 mph 15 % 0 in
13:31 63.5 °F 20.5 °F 30.21 in NNE 3.2 mph -999.0 mph 19 % 0 in
13:47 64.0 °F 20.9 °F 30.21 in NNW 4.7 mph -999.0 mph 19 % 0 in
14:02 63.3 °F 24.8 °F 30.20 in NNW 5.8 mph -999.0 mph 23 % 0 in
14:18 63.9 °F 23.2 °F 30.20 in NW 4.7 mph -999.0 mph 21 % 0 in
14:33 64.6 °F 17.4 °F 30.20 in NNW 3.2 mph -999.0 mph 16 % 0 in
14:49 65.3 °F 16.4 °F 30.19 in NNE 2.2 mph -999.0 mph 15 % 0 in
15:04 66.2 °F 8.0 °F 30.19 in West 2.7 mph -999.0 mph 10 % 0 in
15:19 66.6 °F 10.4 °F 30.19 in NNW 6.8 mph -999.0 mph 11 % 0 in
15:35 65.8 °F 18.3 °F 30.19 in NNW 2.7 mph -999.0 mph 16 % 0 in
15:50 65.7 °F 15.2 °F 30.19 in NNW 4.7 mph -999.0 mph 14 % 0 in
16:05 66.4 °F 12.2 °F 30.19 in WNW 4.2 mph -999.0 mph 12 % 0 in
16:20 66.9 °F 19.2 °F 30.18 in NW 5.3 mph -999.0 mph 16 % 0 in
16:36 66.4 °F 15.7 °F 30.18 in NW 5.8 mph -999.0 mph 14 % 0 in
16:51 67.1 °F 10.8 °F 30.18 in NNW 4.2 mph -999.0 mph 11 % 0 in
17:06 67.8 °F 15.1 °F 30.18 in NW 3.7 mph -999.0 mph 13 % 0 in
17:22 66.4 °F 17.3 °F 30.19 in NNW 6.8 mph -999.0 mph 15 % 0 in
17:37 67.3 °F 19.5 °F 30.18 in NNE 3.2 mph -999.0 mph 16 % 0 in
17:53 67.1 °F 22.2 °F 30.19 in NNW 3.7 mph -999.0 mph 18 % 0 in
18:08 65.7 °F 19.7 °F 30.19 in South 2.7 mph -999.0 mph 17 % 0 in
18:23 64.8 °F 20.3 °F 30.18 in Calm   -999.0 mph 18 % 0 in
18:39 59.4 °F 26.3 °F 30.18 in NNE 1.1 mph -999.0 mph 28 % 0 in
18:54 56.7 °F 23.9 °F 30.18 in Calm   -999.0 mph 28 % 0 in
19:09 54.9 °F 24.0 °F 30.18 in South 1.1 mph -999.0 mph 30 % 0 in
19:24 53.6 °F 20.4 °F 30.18 in Calm   -999.0 mph 27 % 0 in
19:39 52.2 °F 18.3 °F 30.18 in SSE 2.2 mph -999.0 mph 26 % 0 in
19:55 50.5 °F 21.7 °F 30.18 in SSE 2.2 mph -999.0 mph 32 % 0 in
20:10 49.6 °F 14.2 °F 30.19 in SSE 2.2 mph -999.0 mph 24 % 0 in
20:25 48.7 °F 15.3 °F 30.19 in SSE 2.7 mph -999.0 mph 26 % 0 in
20:40 47.5 °F 15.1 °F 30.19 in South 1.7 mph -999.0 mph 27 % 0 in
20:55 46.6 °F 15.2 °F 30.20 in SSE 2.2 mph -999.0 mph 28 % 0 in
21:11 45.9 °F 17.7 °F 30.20 in SSE 2.2 mph -999.0 mph 32 % 0 in
21:26 44.8 °F 12.8 °F 30.20 in South 2.2 mph -999.0 mph 27 % 0 in
21:41 44.6 °F 11.8 °F 30.21 in South 1.7 mph -999.0 mph 26 % 0 in
21:56 44.1 °F 12.2 °F 30.21 in South 1.7 mph -999.0 mph 27 % 0 in
22:12 43.5 °F 11.7 °F 30.20 in SSE 2.2 mph -999.0 mph 27 % 0 in
22:27 42.8 °F 15.7 °F 30.20 in SSE 2.2 mph -999.0 mph 33 % 0 in
22:42 41.9 °F 14.9 °F 30.21 in South 1.7 mph -999.0 mph 33 % 0 in
22:57 41.2 °F 20.4 °F 30.21 in South 2.7 mph -999.0 mph 43 % 0 in
23:13 40.8 °F 20.0 °F 30.21 in Calm   -999.0 mph 43 % 0 in
23:28 41.0 °F 21.3 °F 30.21 in Calm   -999.0 mph 45 % 0 in
23:43 40.5 °F 22.3 °F 30.21 in Calm   -999.0 mph 48 % 0 in
23:59 39.7 °F 20.6 °F 30.21 in SSE 2.2 mph -999.0 mph 46 % 0 in
Big Bear CA Weather
Compliments of Weather Underground - 1.25 mb